sensor_id;sensor_type;location;lat;lon;timestamp;temperature;humidity
39849;DHT22;25518;47.878;15.914;2022-10-24T00:01:39;7.90;99.90
39849;DHT22;25518;47.878;15.914;2022-10-24T00:04:26;8.10;99.90
39849;DHT22;25518;47.878;15.914;2022-10-24T00:07:12;8.10;99.90
39849;DHT22;25518;47.878;15.914;2022-10-24T00:09:58;8.20;99.90
39849;DHT22;25518;47.878;15.914;2022-10-24T00:12:45;8.10;99.90
39849;DHT22;25518;47.878;15.914;2022-10-24T00:15:31;8.10;99.90
39849;DHT22;25518;47.878;15.914;2022-10-24T00:18:17;8.20;99.90
39849;DHT22;25518;47.878;15.914;2022-10-24T00:21:04;8.20;99.90
39849;DHT22;25518;47.878;15.914;2022-10-24T00:23:51;8.20;99.90
39849;DHT22;25518;47.878;15.914;2022-10-24T00:26:38;8.10;99.90
39849;DHT22;25518;47.878;15.914;2022-10-24T00:29:24;8.10;99.90
39849;DHT22;25518;47.878;15.914;2022-10-24T00:32:10;8.20;99.90
39849;DHT22;25518;47.878;15.914;2022-10-24T00:34:57;8.10;99.90
39849;DHT22;25518;47.878;15.914;2022-10-24T00:37:43;8.10;99.90
39849;DHT22;25518;47.878;15.914;2022-10-24T00:40:30;8.10;99.90
39849;DHT22;25518;47.878;15.914;2022-10-24T00:43:19;8.20;99.90
39849;DHT22;25518;47.878;15.914;2022-10-24T00:46:07;8.20;99.90
39849;DHT22;25518;47.878;15.914;2022-10-24T00:48:54;8.10;99.90
39849;DHT22;25518;47.878;15.914;2022-10-24T00:51:41;8.00;99.90
39849;DHT22;25518;47.878;15.914;2022-10-24T00:54:28;7.90;99.90
39849;DHT22;25518;47.878;15.914;2022-10-24T01:00:13;7.90;99.90
39849;DHT22;25518;47.878;15.914;2022-10-24T01:03:01;8.00;99.90
39849;DHT22;25518;47.878;15.914;2022-10-24T01:14:50;7.70;99.90
39849;DHT22;25518;47.878;15.914;2022-10-24T01:30:07;8.00;99.90
39849;DHT22;25518;47.878;15.914;2022-10-24T01:33:15;8.10;99.90
39849;DHT22;25518;47.878;15.914;2022-10-24T01:38:58;8.20;99.90
39849;DHT22;25518;47.878;15.914;2022-10-24T01:41:47;8.30;99.90
39849;DHT22;25518;47.878;15.914;2022-10-24T01:44:39;8.30;99.90
39849;DHT22;25518;47.878;15.914;2022-10-24T01:47:33;8.30;99.90
39849;DHT22;25518;47.878;15.914;2022-10-24T01:50:24;8.30;99.90
39849;DHT22;25518;47.878;15.914;2022-10-24T01:53:12;8.10;99.90
39849;DHT22;25518;47.878;15.914;2022-10-24T01:56:00;8.30;99.90
39849;DHT22;25518;47.878;15.914;2022-10-24T01:58:47;8.20;99.90
39849;DHT22;25518;47.878;15.914;2022-10-24T02:01:34;8.20;99.90
39849;DHT22;25518;47.878;15.914;2022-10-24T02:04:22;8.20;99.90
39849;DHT22;25518;47.878;15.914;2022-10-24T02:07:11;7.30;99.90
39849;DHT22;25518;47.878;15.914;2022-10-24T02:10:05;8.10;99.90
39849;DHT22;25518;47.878;15.914;2022-10-24T02:12:57;8.20;99.90
39849;DHT22;25518;47.878;15.914;2022-10-24T02:15:49;8.30;99.90
39849;DHT22;25518;47.878;15.914;2022-10-24T02:18:38;8.10;99.90
39849;DHT22;25518;47.878;15.914;2022-10-24T02:21:32;8.30;99.90
39849;DHT22;25518;47.878;15.914;2022-10-24T02:24:25;8.70;99.90
39849;DHT22;25518;47.878;15.914;2022-10-24T02:27:20;9.00;99.90
39849;DHT22;25518;47.878;15.914;2022-10-24T02:32:57;9.10;99.90
39849;DHT22;25518;47.878;15.914;2022-10-24T02:35:46;9.20;99.90
39849;DHT22;25518;47.878;15.914;2022-10-24T02:38:36;9.30;99.90
39849;DHT22;25518;47.878;15.914;2022-10-24T02:41:28;9.10;99.90
39849;DHT22;25518;47.878;15.914;2022-10-24T02:44:16;8.90;99.90
39849;DHT22;25518;47.878;15.914;2022-10-24T02:47:05;8.90;99.90
39849;DHT22;25518;47.878;15.914;2022-10-24T02:49:52;9.10;99.90
39849;DHT22;25518;47.878;15.914;2022-10-24T02:52:41;9.40;99.90
39849;DHT22;25518;47.878;15.914;2022-10-24T02:55:28;9.40;99.90
39849;DHT22;25518;47.878;15.914;2022-10-24T02:58:14;9.50;99.90
39849;DHT22;25518;47.878;15.914;2022-10-24T03:01:00;9.60;99.90
39849;DHT22;25518;47.878;15.914;2022-10-24T03:17:37;9.30;99.90
39849;DHT22;25518;47.878;15.914;2022-10-24T03:20:23;9.50;99.90
39849;DHT22;25518;47.878;15.914;2022-10-24T03:23:09;9.60;99.90
39849;DHT22;25518;47.878;15.914;2022-10-24T03:25:57;9.70;99.90
39849;DHT22;25518;47.878;15.914;2022-10-24T03:28:44;9.70;99.90
39849;DHT22;25518;47.878;15.914;2022-10-24T03:31:30;9.80;99.90
39849;DHT22;25518;47.878;15.914;2022-10-24T03:34:17;9.80;99.90
39849;DHT22;25518;47.878;15.914;2022-10-24T03:37:03;9.80;99.90
39849;DHT22;25518;47.878;15.914;2022-10-24T03:39:50;9.80;99.90
39849;DHT22;25518;47.878;15.914;2022-10-24T03:42:36;9.80;99.90
39849;DHT22;25518;47.878;15.914;2022-10-24T03:45:22;9.90;99.90
39849;DHT22;25518;47.878;15.914;2022-10-24T03:48:09;9.80;99.90
39849;DHT22;25518;47.878;15.914;2022-10-24T03:50:55;9.90;99.90
39849;DHT22;25518;47.878;15.914;2022-10-24T03:53:41;9.90;99.90
39849;DHT22;25518;47.878;15.914;2022-10-24T03:56:28;10.00;99.90
39849;DHT22;25518;47.878;15.914;2022-10-24T03:59:15;10.00;99.90
39849;DHT22;25518;47.878;15.914;2022-10-24T04:02:02;10.10;99.90
39849;DHT22;25518;47.878;15.914;2022-10-24T04:04:48;10.20;99.90
39849;DHT22;25518;47.878;15.914;2022-10-24T04:07:34;10.20;99.90
39849;DHT22;25518;47.878;15.914;2022-10-24T04:10:21;10.20;99.90
39849;DHT22;25518;47.878;15.914;2022-10-24T04:13:07;10.20;99.90
39849;DHT22;25518;47.878;15.914;2022-10-24T04:15:53;10.20;99.90
39849;DHT22;25518;47.878;15.914;2022-10-24T04:18:39;10.10;99.90
39849;DHT22;25518;47.878;15.914;2022-10-24T04:21:26;10.20;99.90
39849;DHT22;25518;47.878;15.914;2022-10-24T04:24:13;10.20;99.90
39849;DHT22;25518;47.878;15.914;2022-10-24T04:27:00;10.30;99.90
39849;DHT22;25518;47.878;15.914;2022-10-24T04:29:46;10.20;99.90
39849;DHT22;25518;47.878;15.914;2022-10-24T04:32:33;10.30;99.90
39849;DHT22;25518;47.878;15.914;2022-10-24T04:35:19;10.40;99.90
39849;DHT22;25518;47.878;15.914;2022-10-24T04:38:05;10.50;99.90
39849;DHT22;25518;47.878;15.914;2022-10-24T04:40:52;10.50;99.90
39849;DHT22;25518;47.878;15.914;2022-10-24T04:43:39;10.60;99.90
39849;DHT22;25518;47.878;15.914;2022-10-24T04:46:26;10.60;99.90
39849;DHT22;25518;47.878;15.914;2022-10-24T04:49:12;10.70;99.90
39849;DHT22;25518;47.878;15.914;2022-10-24T04:51:58;10.70;99.90
39849;DHT22;25518;47.878;15.914;2022-10-24T04:54:44;10.70;99.90
39849;DHT22;25518;47.878;15.914;2022-10-24T04:57:31;10.60;99.90
39849;DHT22;25518;47.878;15.914;2022-10-24T05:00:17;10.60;99.90
39849;DHT22;25518;47.878;15.914;2022-10-24T05:03:03;10.50;99.90
39849;DHT22;25518;47.878;15.914;2022-10-24T05:05:49;10.50;99.90
39849;DHT22;25518;47.878;15.914;2022-10-24T05:08:36;10.60;99.90
39849;DHT22;25518;47.878;15.914;2022-10-24T05:11:22;10.50;99.90
39849;DHT22;25518;47.878;15.914;2022-10-24T05:14:08;10.50;99.90
39849;DHT22;25518;47.878;15.914;2022-10-24T05:16:54;10.50;99.90
39849;DHT22;25518;47.878;15.914;2022-10-24T05:19:41;10.50;99.90
39849;DHT22;25518;47.878;15.914;2022-10-24T05:22:27;10.60;99.90
39849;DHT22;25518;47.878;15.914;2022-10-24T05:25:13;10.60;99.90
39849;DHT22;25518;47.878;15.914;2022-10-24T05:27:59;10.40;99.90
39849;DHT22;25518;47.878;15.914;2022-10-24T05:30:45;10.40;99.90
39849;DHT22;25518;47.878;15.914;2022-10-24T05:33:32;10.50;99.90
39849;DHT22;25518;47.878;15.914;2022-10-24T05:36:18;10.50;99.90
39849;DHT22;25518;47.878;15.914;2022-10-24T05:39:05;10.50;99.90
39849;DHT22;25518;47.878;15.914;2022-10-24T05:41:51;10.50;99.90
39849;DHT22;25518;47.878;15.914;2022-10-24T05:44:37;10.50;99.90
39849;DHT22;25518;47.878;15.914;2022-10-24T05:47:24;10.60;99.90
39849;DHT22;25518;47.878;15.914;2022-10-24T05:50:10;10.60;99.90
39849;DHT22;25518;47.878;15.914;2022-10-24T05:52:57;10.70;99.90
39849;DHT22;25518;47.878;15.914;2022-10-24T05:55:43;10.70;99.90
39849;DHT22;25518;47.878;15.914;2022-10-24T05:58:30;10.70;99.90
39849;DHT22;25518;47.878;15.914;2022-10-24T06:01:16;10.80;99.90
39849;DHT22;25518;47.878;15.914;2022-10-24T06:04:02;10.80;99.90
39849;DHT22;25518;47.878;15.914;2022-10-24T06:06:49;10.80;99.90
39849;DHT22;25518;47.878;15.914;2022-10-24T06:09:35;10.90;99.90
39849;DHT22;25518;47.878;15.914;2022-10-24T06:12:21;10.90;99.90
39849;DHT22;25518;47.878;15.914;2022-10-24T06:15:09;10.90;99.90
39849;DHT22;25518;47.878;15.914;2022-10-24T06:17:56;11.00;99.90
39849;DHT22;25518;47.878;15.914;2022-10-24T06:20:42;11.00;99.90
39849;DHT22;25518;47.878;15.914;2022-10-24T06:23:29;11.10;99.90
39849;DHT22;25518;47.878;15.914;2022-10-24T06:26:16;11.10;99.90
39849;DHT22;25518;47.878;15.914;2022-10-24T06:29:02;11.20;99.90
39849;DHT22;25518;47.878;15.914;2022-10-24T06:31:48;11.10;99.90
39849;DHT22;25518;47.878;15.914;2022-10-24T06:34:35;11.10;99.90
39849;DHT22;25518;47.878;15.914;2022-10-24T06:37:21;11.00;99.90
39849;DHT22;25518;47.878;15.914;2022-10-24T06:40:08;10.80;99.90
39849;DHT22;25518;47.878;15.914;2022-10-24T06:42:55;10.80;99.90
39849;DHT22;25518;47.878;15.914;2022-10-24T06:45:41;10.80;99.90
39849;DHT22;25518;47.878;15.914;2022-10-24T06:48:27;11.00;99.90
39849;DHT22;25518;47.878;15.914;2022-10-24T06:51:15;10.80;99.90
39849;DHT22;25518;47.878;15.914;2022-10-24T06:54:01;10.70;99.90
39849;DHT22;25518;47.878;15.914;2022-10-24T06:56:47;10.60;99.90
39849;DHT22;25518;47.878;15.914;2022-10-24T06:59:34;10.60;99.90
39849;DHT22;25518;47.878;15.914;2022-10-24T07:02:20;10.40;99.90
39849;DHT22;25518;47.878;15.914;2022-10-24T07:05:06;10.30;99.90
39849;DHT22;25518;47.878;15.914;2022-10-24T07:07:56;10.40;99.90
39849;DHT22;25518;47.878;15.914;2022-10-24T07:10:42;10.60;99.90
39849;DHT22;25518;47.878;15.914;2022-10-24T07:13:28;10.60;99.90
39849;DHT22;25518;47.878;15.914;2022-10-24T07:16:15;10.60;99.90
39849;DHT22;25518;47.878;15.914;2022-10-24T07:19:02;10.70;99.90
39849;DHT22;25518;47.878;15.914;2022-10-24T07:21:49;10.80;99.90
39849;DHT22;25518;47.878;15.914;2022-10-24T07:24:36;10.80;99.90
39849;DHT22;25518;47.878;15.914;2022-10-24T07:27:22;10.90;99.90
39849;DHT22;25518;47.878;15.914;2022-10-24T07:30:15;10.80;99.90
39849;DHT22;25518;47.878;15.914;2022-10-24T07:33:02;10.90;99.90
39849;DHT22;25518;47.878;15.914;2022-10-24T07:35:48;11.00;99.90
39849;DHT22;25518;47.878;15.914;2022-10-24T07:38:35;11.20;99.90
39849;DHT22;25518;47.878;15.914;2022-10-24T07:41:23;11.30;99.90
39849;DHT22;25518;47.878;15.914;2022-10-24T07:44:10;11.40;99.90
39849;DHT22;25518;47.878;15.914;2022-10-24T07:46:57;11.50;99.90
39849;DHT22;25518;47.878;15.914;2022-10-24T07:49:43;11.50;99.90
39849;DHT22;25518;47.878;15.914;2022-10-24T07:52:29;11.60;99.90
39849;DHT22;25518;47.878;15.914;2022-10-24T07:55:15;11.70;99.90
39849;DHT22;25518;47.878;15.914;2022-10-24T07:58:02;11.80;99.90
39849;DHT22;25518;47.878;15.914;2022-10-24T08:00:48;12.00;99.90
39849;DHT22;25518;47.878;15.914;2022-10-24T08:03:34;12.10;99.90
39849;DHT22;25518;47.878;15.914;2022-10-24T08:06:25;11.90;99.90
39849;DHT22;25518;47.878;15.914;2022-10-24T08:09:13;12.10;99.90
39849;DHT22;25518;47.878;15.914;2022-10-24T08:11:59;12.20;99.90
39849;DHT22;25518;47.878;15.914;2022-10-24T08:14:46;12.50;99.90
39849;DHT22;25518;47.878;15.914;2022-10-24T08:17:32;12.70;99.90
39849;DHT22;25518;47.878;15.914;2022-10-24T08:20:18;12.90;99.90
39849;DHT22;25518;47.878;15.914;2022-10-24T08:23:05;13.10;99.90
39849;DHT22;25518;47.878;15.914;2022-10-24T08:25:51;13.30;99.90
39849;DHT22;25518;47.878;15.914;2022-10-24T08:28:38;13.50;99.90
39849;DHT22;25518;47.878;15.914;2022-10-24T08:31:24;13.70;99.90
39849;DHT22;25518;47.878;15.914;2022-10-24T08:34:11;13.80;99.90
39849;DHT22;25518;47.878;15.914;2022-10-24T08:36:59;13.90;99.90
39849;DHT22;25518;47.878;15.914;2022-10-24T08:39:45;14.00;99.90
39849;DHT22;25518;47.878;15.914;2022-10-24T08:42:32;14.10;99.90
39849;DHT22;25518;47.878;15.914;2022-10-24T08:45:28;14.30;99.90
39849;DHT22;25518;47.878;15.914;2022-10-24T08:48:25;14.40;99.90
39849;DHT22;25518;47.878;15.914;2022-10-24T08:51:33;14.50;99.90
39849;DHT22;25518;47.878;15.914;2022-10-24T08:54:27;14.80;99.90
39849;DHT22;25518;47.878;15.914;2022-10-24T08:57:26;14.90;99.90
39849;DHT22;25518;47.878;15.914;2022-10-24T09:00:16;15.00;99.90
39849;DHT22;25518;47.878;15.914;2022-10-24T09:06:02;15.10;99.90
39849;DHT22;25518;47.878;15.914;2022-10-24T09:08:53;15.10;99.90
39849;DHT22;25518;47.878;15.914;2022-10-24T09:11:52;15.10;99.90
39849;DHT22;25518;47.878;15.914;2022-10-24T09:14:41;15.10;99.90
39849;DHT22;25518;47.878;15.914;2022-10-24T09:17:30;15.00;99.90
39849;DHT22;25518;47.878;15.914;2022-10-24T09:23:07;15.00;99.90
39849;DHT22;25518;47.878;15.914;2022-10-24T09:25:57;15.00;99.90
39849;DHT22;25518;47.878;15.914;2022-10-24T09:28:43;14.80;99.90
39849;DHT22;25518;47.878;15.914;2022-10-24T09:31:30;14.80;99.90
39849;DHT22;25518;47.878;15.914;2022-10-24T09:34:16;14.80;99.90
39849;DHT22;25518;47.878;15.914;2022-10-24T09:37:03;14.90;99.90
39849;DHT22;25518;47.878;15.914;2022-10-24T09:40:05;14.90;99.90
39849;DHT22;25518;47.878;15.914;2022-10-24T09:42:53;15.00;99.90
39849;DHT22;25518;47.878;15.914;2022-10-24T09:45:44;15.00;99.90
39849;DHT22;25518;47.878;15.914;2022-10-24T09:57:14;15.10;99.90
39849;DHT22;25518;47.878;15.914;2022-10-24T10:00:03;15.50;99.90
39849;DHT22;25518;47.878;15.914;2022-10-24T10:03:05;15.50;99.90
39849;DHT22;25518;47.878;15.914;2022-10-24T10:05:54;15.70;99.90
39849;DHT22;25518;47.878;15.914;2022-10-24T10:08:40;15.90;99.90
39849;DHT22;25518;47.878;15.914;2022-10-24T10:11:33;16.10;99.90
39849;DHT22;25518;47.878;15.914;2022-10-24T10:14:23;16.20;99.90
39849;DHT22;25518;47.878;15.914;2022-10-24T10:17:21;16.50;99.90
39849;DHT22;25518;47.878;15.914;2022-10-24T10:20:23;16.80;99.90
39849;DHT22;25518;47.878;15.914;2022-10-24T10:23:25;17.20;99.90
39849;DHT22;25518;47.878;15.914;2022-10-24T10:32:16;17.70;99.90
39849;DHT22;25518;47.878;15.914;2022-10-24T10:35:19;17.80;99.90
39849;DHT22;25518;47.878;15.914;2022-10-24T10:41:30;17.70;99.90
39849;DHT22;25518;47.878;15.914;2022-10-24T10:47:42;17.70;99.90
39849;DHT22;25518;47.878;15.914;2022-10-24T10:50:40;17.70;99.90
39849;DHT22;25518;47.878;15.914;2022-10-24T10:56:41;17.70;99.90
39849;DHT22;25518;47.878;15.914;2022-10-24T11:00:07;17.70;99.90
39849;DHT22;25518;47.878;15.914;2022-10-24T11:11:31;18.30;99.90
39849;DHT22;25518;47.878;15.914;2022-10-24T11:14:42;18.40;99.90
39849;DHT22;25518;47.878;15.914;2022-10-24T11:17:38;18.50;99.90
39849;DHT22;25518;47.878;15.914;2022-10-24T11:20:30;18.70;99.90
39849;DHT22;25518;47.878;15.914;2022-10-24T11:23:40;18.70;99.90
39849;DHT22;25518;47.878;15.914;2022-10-24T11:26:32;18.90;99.90
39849;DHT22;25518;47.878;15.914;2022-10-24T11:32:33;19.30;99.90
39849;DHT22;25518;47.878;15.914;2022-10-24T11:35:36;19.50;99.90
39849;DHT22;25518;47.878;15.914;2022-10-24T11:38:29;19.40;99.90
39849;DHT22;25518;47.878;15.914;2022-10-24T11:41:36;19.50;99.90
39849;DHT22;25518;47.878;15.914;2022-10-24T11:53:19;19.50;99.90
39849;DHT22;25518;47.878;15.914;2022-10-24T11:56:45;19.20;99.90
39849;DHT22;25518;47.878;15.914;2022-10-24T11:59:20;19.10;99.90
39849;DHT22;25518;47.878;15.914;2022-10-24T12:05:24;19.10;99.90
39849;DHT22;25518;47.878;15.914;2022-10-24T12:11:47;19.20;99.90
39849;DHT22;25518;47.878;15.914;2022-10-24T12:14:42;19.20;99.90
39849;DHT22;25518;47.878;15.914;2022-10-24T12:20:28;19.10;99.90
39849;DHT22;25518;47.878;15.914;2022-10-24T12:23:21;19.00;99.90
39849;DHT22;25518;47.878;15.914;2022-10-24T12:26:17;19.00;99.90
39849;DHT22;25518;47.878;15.914;2022-10-24T12:29:06;18.90;99.90
39849;DHT22;25518;47.878;15.914;2022-10-24T12:32:56;18.80;99.90
39849;DHT22;25518;47.878;15.914;2022-10-24T12:35:44;18.70;99.90
39849;DHT22;25518;47.878;15.914;2022-10-24T12:41:34;18.60;99.90
39849;DHT22;25518;47.878;15.914;2022-10-24T12:53:28;18.40;99.90
39849;DHT22;25518;47.878;15.914;2022-10-24T12:56:20;18.30;99.90
39849;DHT22;25518;47.878;15.914;2022-10-24T12:59:27;18.30;99.90
39849;DHT22;25518;47.878;15.914;2022-10-24T13:14:26;18.40;99.90
39849;DHT22;25518;47.878;15.914;2022-10-24T13:17:34;18.70;99.90
39849;DHT22;25518;47.878;15.914;2022-10-24T13:20:25;18.50;99.90
39849;DHT22;25518;47.878;15.914;2022-10-24T13:23:22;18.50;99.90
39849;DHT22;25518;47.878;15.914;2022-10-24T13:26:33;18.60;99.90
39849;DHT22;25518;47.878;15.914;2022-10-24T13:34:55;19.70;99.90
39849;DHT22;25518;47.878;15.914;2022-10-24T13:37:47;20.40;99.90
39849;DHT22;25518;47.878;15.914;2022-10-24T13:40:36;21.10;99.90
39849;DHT22;25518;47.878;15.914;2022-10-24T13:43:27;21.20;99.90
39849;DHT22;25518;47.878;15.914;2022-10-24T13:46:27;20.90;99.90
39849;DHT22;25518;47.878;15.914;2022-10-24T13:49:21;20.70;99.90
39849;DHT22;25518;47.878;15.914;2022-10-24T13:52:20;20.40;99.90
39849;DHT22;25518;47.878;15.914;2022-10-24T13:58:02;19.60;99.90
39849;DHT22;25518;47.878;15.914;2022-10-24T14:01:03;20.10;99.90
39849;DHT22;25518;47.878;15.914;2022-10-24T14:03:52;20.20;99.90
39849;DHT22;25518;47.878;15.914;2022-10-24T14:06:38;20.60;99.90
39849;DHT22;25518;47.878;15.914;2022-10-24T14:09:25;20.70;99.90
39849;DHT22;25518;47.878;15.914;2022-10-24T14:12:22;20.90;99.90
39849;DHT22;25518;47.878;15.914;2022-10-24T14:15:20;20.70;99.90
39849;DHT22;25518;47.878;15.914;2022-10-24T14:18:12;20.40;99.90
39849;DHT22;25518;47.878;15.914;2022-10-24T14:21:02;19.90;99.90
39849;DHT22;25518;47.878;15.914;2022-10-24T14:23:56;19.40;99.90
39849;DHT22;25518;47.878;15.914;2022-10-24T14:26:44;18.90;99.90
39849;DHT22;25518;47.878;15.914;2022-10-24T14:29:31;18.50;99.90
39849;DHT22;25518;47.878;15.914;2022-10-24T14:32:17;18.30;99.90
39849;DHT22;25518;47.878;15.914;2022-10-24T14:35:04;18.00;99.90
39849;DHT22;25518;47.878;15.914;2022-10-24T14:37:50;17.80;99.90
39849;DHT22;25518;47.878;15.914;2022-10-24T14:40:36;17.60;99.90
39849;DHT22;25518;47.878;15.914;2022-10-24T14:43:24;17.40;99.90
39849;DHT22;25518;47.878;15.914;2022-10-24T14:52:08;17.00;99.90
39849;DHT22;25518;47.878;15.914;2022-10-24T14:54:58;17.00;99.90
39849;DHT22;25518;47.878;15.914;2022-10-24T14:57:50;16.80;99.90
39849;DHT22;25518;47.878;15.914;2022-10-24T15:00:38;16.70;99.90
39849;DHT22;25518;47.878;15.914;2022-10-24T15:03:27;16.60;99.90
39849;DHT22;25518;47.878;15.914;2022-10-24T15:06:23;16.50;99.90
39849;DHT22;25518;47.878;15.914;2022-10-24T15:12:01;16.40;99.90
39849;DHT22;25518;47.878;15.914;2022-10-24T15:14:47;16.40;99.90
39849;DHT22;25518;47.878;15.914;2022-10-24T15:17:38;16.40;99.90
39849;DHT22;25518;47.878;15.914;2022-10-24T15:20:26;16.30;99.90
39849;DHT22;25518;47.878;15.914;2022-10-24T15:23:27;16.20;99.90
39849;DHT22;25518;47.878;15.914;2022-10-24T15:26:19;16.20;99.90
39849;DHT22;25518;47.878;15.914;2022-10-24T15:29:16;16.10;99.90
39849;DHT22;25518;47.878;15.914;2022-10-24T15:32:07;16.10;99.90
39849;DHT22;25518;47.878;15.914;2022-10-24T15:34:56;16.00;99.90
39849;DHT22;25518;47.878;15.914;2022-10-24T15:38:08;15.90;99.90
39849;DHT22;25518;47.878;15.914;2022-10-24T15:40:55;15.80;99.90
39849;DHT22;25518;47.878;15.914;2022-10-24T15:43:43;15.70;99.90
39849;DHT22;25518;47.878;15.914;2022-10-24T15:46:29;15.60;99.90
39849;DHT22;25518;47.878;15.914;2022-10-24T15:49:16;15.60;99.90
39849;DHT22;25518;47.878;15.914;2022-10-24T15:52:06;15.60;99.90
39849;DHT22;25518;47.878;15.914;2022-10-24T15:54:52;15.60;99.90
39849;DHT22;25518;47.878;15.914;2022-10-24T15:57:39;15.60;99.90
39849;DHT22;25518;47.878;15.914;2022-10-24T16:00:25;15.60;99.90
39849;DHT22;25518;47.878;15.914;2022-10-24T16:03:16;15.40;99.90
39849;DHT22;25518;47.878;15.914;2022-10-24T16:06:03;15.40;99.90
39849;DHT22;25518;47.878;15.914;2022-10-24T16:08:50;15.30;99.90
39849;DHT22;25518;47.878;15.914;2022-10-24T16:11:36;15.40;99.90
39849;DHT22;25518;47.878;15.914;2022-10-24T16:14:23;15.30;99.90
39849;DHT22;25518;47.878;15.914;2022-10-24T16:17:11;15.30;99.90
39849;DHT22;25518;47.878;15.914;2022-10-24T16:19:57;15.30;99.90
39849;DHT22;25518;47.878;15.914;2022-10-24T16:22:43;15.30;99.90
39849;DHT22;25518;47.878;15.914;2022-10-24T16:25:33;15.30;99.90
39849;DHT22;25518;47.878;15.914;2022-10-24T16:28:19;15.20;99.90
39849;DHT22;25518;47.878;15.914;2022-10-24T16:31:08;15.30;99.90
39849;DHT22;25518;47.878;15.914;2022-10-24T16:33:54;15.10;99.90
39849;DHT22;25518;47.878;15.914;2022-10-24T16:36:40;15.00;99.90
39849;DHT22;25518;47.878;15.914;2022-10-24T16:39:27;15.10;99.90
39849;DHT22;25518;47.878;15.914;2022-10-24T16:42:13;15.10;99.90
39849;DHT22;25518;47.878;15.914;2022-10-24T16:44:59;15.00;99.90
39849;DHT22;25518;47.878;15.914;2022-10-24T16:47:47;15.00;99.90
39849;DHT22;25518;47.878;15.914;2022-10-24T16:50:34;14.90;99.90
39849;DHT22;25518;47.878;15.914;2022-10-24T16:53:20;14.80;99.90
39849;DHT22;25518;47.878;15.914;2022-10-24T16:56:10;14.70;99.90
39849;DHT22;25518;47.878;15.914;2022-10-24T16:58:57;14.50;99.90
39849;DHT22;25518;47.878;15.914;2022-10-24T17:01:43;14.40;99.90
39849;DHT22;25518;47.878;15.914;2022-10-24T17:04:29;14.20;99.90
39849;DHT22;25518;47.878;15.914;2022-10-24T17:07:16;14.10;99.90
39849;DHT22;25518;47.878;15.914;2022-10-24T17:10:02;13.90;99.90
39849;DHT22;25518;47.878;15.914;2022-10-24T17:12:48;13.70;99.90
39849;DHT22;25518;47.878;15.914;2022-10-24T17:15:35;13.60;99.90
39849;DHT22;25518;47.878;15.914;2022-10-24T17:18:22;13.50;99.90
39849;DHT22;25518;47.878;15.914;2022-10-24T17:21:10;13.30;99.90
39849;DHT22;25518;47.878;15.914;2022-10-24T17:23:58;13.30;99.90
39849;DHT22;25518;47.878;15.914;2022-10-24T17:26:45;13.30;99.90
39849;DHT22;25518;47.878;15.914;2022-10-24T17:29:33;13.30;99.90
39849;DHT22;25518;47.878;15.914;2022-10-24T17:32:19;13.20;99.90
39849;DHT22;25518;47.878;15.914;2022-10-24T17:35:05;13.20;99.90
39849;DHT22;25518;47.878;15.914;2022-10-24T17:41:16;13.20;99.90
39849;DHT22;25518;47.878;15.914;2022-10-24T17:44:07;13.20;99.90
39849;DHT22;25518;47.878;15.914;2022-10-24T17:46:57;13.10;99.90
39849;DHT22;25518;47.878;15.914;2022-10-24T17:49:44;13.10;99.90
39849;DHT22;25518;47.878;15.914;2022-10-24T17:52:30;13.20;99.90
39849;DHT22;25518;47.878;15.914;2022-10-24T17:55:21;13.10;99.90
39849;DHT22;25518;47.878;15.914;2022-10-24T17:58:07;13.10;99.90
39849;DHT22;25518;47.878;15.914;2022-10-24T18:00:54;13.10;99.90
39849;DHT22;25518;47.878;15.914;2022-10-24T18:03:40;13.20;99.90
39849;DHT22;25518;47.878;15.914;2022-10-24T18:06:26;13.20;99.90
39849;DHT22;25518;47.878;15.914;2022-10-24T18:09:12;13.20;99.90
39849;DHT22;25518;47.878;15.914;2022-10-24T18:11:59;13.20;99.90
39849;DHT22;25518;47.878;15.914;2022-10-24T18:14:47;13.20;99.90
39849;DHT22;25518;47.878;15.914;2022-10-24T18:17:33;13.40;99.90
39849;DHT22;25518;47.878;15.914;2022-10-24T18:20:19;13.30;99.90
39849;DHT22;25518;47.878;15.914;2022-10-24T18:23:05;13.40;99.90
39849;DHT22;25518;47.878;15.914;2022-10-24T18:25:52;13.30;99.90
39849;DHT22;25518;47.878;15.914;2022-10-24T18:28:40;13.30;99.90
39849;DHT22;25518;47.878;15.914;2022-10-24T18:31:29;13.20;99.90
39849;DHT22;25518;47.878;15.914;2022-10-24T18:34:15;13.20;99.90
39849;DHT22;25518;47.878;15.914;2022-10-24T18:37:01;13.20;99.90
39849;DHT22;25518;47.878;15.914;2022-10-24T18:39:49;13.10;99.90
39849;DHT22;25518;47.878;15.914;2022-10-24T18:42:57;13.10;99.90
39849;DHT22;25518;47.878;15.914;2022-10-24T18:45:46;13.00;99.90
39849;DHT22;25518;47.878;15.914;2022-10-24T18:48:35;13.00;99.90
39849;DHT22;25518;47.878;15.914;2022-10-24T18:51:31;12.90;99.90
39849;DHT22;25518;47.878;15.914;2022-10-24T18:54:20;12.90;99.90
39849;DHT22;25518;47.878;15.914;2022-10-24T19:00:05;13.00;99.90
39849;DHT22;25518;47.878;15.914;2022-10-24T19:03:30;13.00;99.90
39849;DHT22;25518;47.878;15.914;2022-10-24T19:06:24;13.00;99.90
39849;DHT22;25518;47.878;15.914;2022-10-24T19:09:16;13.10;99.90
39849;DHT22;25518;47.878;15.914;2022-10-24T19:12:03;13.00;99.90
39849;DHT22;25518;47.878;15.914;2022-10-24T19:14:52;12.90;99.90
39849;DHT22;25518;47.878;15.914;2022-10-24T19:17:39;13.00;99.90
39849;DHT22;25518;47.878;15.914;2022-10-24T19:20:25;12.90;99.90
39849;DHT22;25518;47.878;15.914;2022-10-24T19:23:13;12.70;99.90
39849;DHT22;25518;47.878;15.914;2022-10-24T19:26:00;12.60;99.90
39849;DHT22;25518;47.878;15.914;2022-10-24T19:28:46;11.20;99.90
39849;DHT22;25518;47.878;15.914;2022-10-24T19:31:32;12.60;99.90
39849;DHT22;25518;47.878;15.914;2022-10-24T19:34:18;12.60;99.90
39849;DHT22;25518;47.878;15.914;2022-10-24T19:37:05;12.60;99.90
39849;DHT22;25518;47.878;15.914;2022-10-24T19:39:52;12.60;99.90
39849;DHT22;25518;47.878;15.914;2022-10-24T19:42:38;12.50;99.90
39849;DHT22;25518;47.878;15.914;2022-10-24T19:45:24;12.50;99.90
39849;DHT22;25518;47.878;15.914;2022-10-24T19:48:11;12.50;99.90
39849;DHT22;25518;47.878;15.914;2022-10-24T19:51:04;12.50;99.90
39849;DHT22;25518;47.878;15.914;2022-10-24T19:53:50;12.40;99.90
39849;DHT22;25518;47.878;15.914;2022-10-24T19:56:37;12.40;99.90
39849;DHT22;25518;47.878;15.914;2022-10-24T19:59:23;12.50;99.90
39849;DHT22;25518;47.878;15.914;2022-10-24T20:02:12;12.10;99.90
39849;DHT22;25518;47.878;15.914;2022-10-24T20:04:58;12.60;99.90
39849;DHT22;25518;47.878;15.914;2022-10-24T20:07:45;12.60;99.90